Terminal Aerodrome Forecast
Issued by NWS Green Bay, WI

Home | Current Version | Previous Version | Text Only | Print | Product List | Glossary On
Versions: 1 2 3 4 5 6 7 8 9 10 11 12 13 14 15 16 17 18 19 20 21 22 23 24 25 26 27
000
FTUS43 KGRB 262010 AAC
TAFGRB
TAF AMD
KGRB 262010Z 2620/2718 22010KT P6SM VCSH SCT020 BKN100
      TEMPO 2621/2623 6SM -SHRA BKN020
     FM270700 01005KT 5SM BR SCT018
      TEMPO 2708/2712 3SM BR BKN018
     FM271300 04010KT P6SM SCT020=

USA.gov is the U.S. government's official web portal to all federal, state and local government web resources and services.